Time;durP1;ratioP1;P1;durP2;ratioP2;P2;SDS_P1;SDS_P2;PMS_P1;PMS_P2;Temp;Humidity;BMP_temperature;BMP_pressure;BME280_temperature;BME280_humidity;BME280_pressure;Samples;Min_cycle;Max_cycle;Signal;HPM_P1;HPM_P2
2021/12/26 00:01:32;;;;;;;8.27;5.22;;;;;;;;;;5085133;28;20453;-46
2021/12/26 00:03:58;;;;;;;7.38;5.03;;;;;;;;;;5082914;28;20035;-45
2021/12/26 00:06:26;;;;;;;6.70;5.00;;;;;;;;;;5066179;28;20020;-46
2021/12/26 00:08:53;;;;;;;6.75;4.55;;;;;;;;;;5083432;28;20036;-45
2021/12/26 00:11:19;;;;;;;6.85;4.65;;;;;;;;;;5083125;28;20028;-46
2021/12/26 00:13:45;;;;;;;7.88;4.95;;;;;;;;;;5067042;28;20024;-47
2021/12/26 00:16:11;;;;;;;6.75;4.40;;;;;;;;;;5084258;28;20379;-46
2021/12/26 00:18:42;;;;;;;5.97;4.20;;;;;;;;;;5066403;28;20060;-46
2021/12/26 00:21:09;;;;;;;5.45;3.72;;;;;;;;;;5084521;28;20023;-46
2021/12/26 00:23:35;;;;;;;6.93;4.22;;;;;;;;;;5081727;28;20040;-46
2021/12/26 00:26:01;;;;;;;7.00;4.55;;;;;;;;;;5065951;28;20027;-47
2021/12/26 00:28:29;;;;;;;6.15;4.25;;;;;;;;;;5084165;28;20069;-45
2021/12/26 00:30:55;;;;;;;6.82;4.78;;;;;;;;;;5084005;28;20024;-46
2021/12/26 00:33:21;;;;;;;7.38;4.65;;;;;;;;;;5066412;28;20036;-46
2021/12/26 00:35:48;;;;;;;6.28;4.47;;;;;;;;;;5085072;28;20027;-46
2021/12/26 00:38:15;;;;;;;6.82;4.18;;;;;;;;;;5083199;28;20031;-47
2021/12/26 00:40:41;;;;;;;5.95;4.25;;;;;;;;;;5064326;28;20859;-46
2021/12/26 00:43:08;;;;;;;5.72;4.13;;;;;;;;;;5084010;28;20024;-45
2021/12/26 00:45:34;;;;;;;6.20;4.47;;;;;;;;;;5065832;28;20035;-46
2021/12/26 00:48:01;;;;;;;6.65;4.85;;;;;;;;;;5084409;28;20020;-45
2021/12/26 00:50:30;;;;;;;7.15;4.40;;;;;;;;;;5083600;28;20030;-46
2021/12/26 00:52:56;;;;;;;6.35;4.22;;;;;;;;;;5065771;28;20020;-46
2021/12/26 00:55:22;;;;;;;4.90;3.80;;;;;;;;;;5090855;28;20101;-46
2021/12/26 00:57:49;;;;;;;4.82;3.60;;;;;;;;;;5105583;28;20047;-45
2021/12/26 01:00:22;;;;;;;6.05;4.25;;;;;;;;;;5105071;28;20024;-46
2021/12/26 01:02:49;;;;;;;7.28;4.60;;;;;;;;;;5085547;28;20024;-46
2021/12/26 01:05:15;;;;;;;6.18;3.97;;;;;;;;;;5084126;28;20075;-47
2021/12/26 01:10:19;;;;;;;7.68;4.95;;;;;;;;;;5086542;28;20111;-46
2021/12/26 01:12:45;;;;;;;7.45;4.53;;;;;;;;;;5085635;28;20548;-46
2021/12/26 01:15:12;;;;;;;6.43;4.32;;;;;;;;;;5085692;28;20032;-47
2021/12/26 01:17:41;;;;;;;6.78;4.43;;;;;;;;;;5085822;28;20103;-46
2021/12/26 01:20:12;;;;;;;6.38;4.40;;;;;;;;;;5102497;28;20028;-46
2021/12/26 01:22:38;;;;;;;7.75;3.85;;;;;;;;;;5106236;28;20020;-45
2021/12/26 01:25:05;;;;;;;5.53;3.80;;;;;;;;;;5106021;28;20081;-46
2021/12/26 01:27:31;;;;;;;4.75;3.80;;;;;;;;;;5104828;28;20023;-46
2021/12/26 01:29:59;;;;;;;5.20;3.60;;;;;;;;;;5084284;28;20114;-47
2021/12/26 01:32:25;;;;;;;5.82;4.15;;;;;;;;;;5085601;28;20864;-45
2021/12/26 01:34:52;;;;;;;6.95;4.10;;;;;;;;;;5085990;28;20074;-46
2021/12/26 01:37:18;;;;;;;5.72;4.07;;;;;;;;;;5085927;28;20032;-46
2021/12/26 01:39:44;;;;;;;6.90;4.45;;;;;;;;;;5085912;28;20032;-47
2021/12/26 01:42:10;;;;;;;4.97;3.72;;;;;;;;;;5083802;28;20103;-46
2021/12/26 01:44:37;;;;;;;5.25;3.72;;;;;;;;;;5085919;28;20086;-46
2021/12/26 01:47:04;;;;;;;5.25;3.70;;;;;;;;;;5085340;28;20482;-46
2021/12/26 01:49:31;;;;;;;6.28;4.40;;;;;;;;;;5085835;28;20036;-48
2021/12/26 01:51:59;;;;;;;5.65;3.88;;;;;;;;;;5088809;28;20024;-46
2021/12/26 01:56:56;;;;;;;6.15;4.00;;;;;;;;;;5088694;28;20024;-46
2021/12/26 01:59:22;;;;;;;6.60;4.15;;;;;;;;;;5089815;28;20153;-47
2021/12/26 02:01:48;;;;;;;7.60;4.57;;;;;;;;;;5088380;28;20050;-46
2021/12/26 02:04:14;;;;;;;7.00;4.30;;;;;;;;;;5087389;28;20038;-45
2021/12/26 02:06:40;;;;;;;5.18;4.00;;;;;;;;;;5089272;28;20080;-45
2021/12/26 02:09:07;;;;;;;6.60;4.68;;;;;;;;;;5089012;28;20035;-47
2021/12/26 02:11:33;;;;;;;7.38;5.05;;;;;;;;;;5087485;28;20091;-45
2021/12/26 02:13:59;;;;;;;6.72;4.50;;;;;;;;;;5089371;28;20028;-46
2021/12/26 02:16:26;;;;;;;6.03;4.25;;;;;;;;;;5088247;28;20063;-46
2021/12/26 02:18:52;;;;;;;6.15;4.32;;;;;;;;;;5089471;28;20032;-46
2021/12/26 02:21:44;;;;;;;5.93;4.13;;;;;;;;;;5089533;28;20032;-45
2021/12/26 02:24:23;;;;;;;6.55;4.32;;;;;;;;;;5073939;28;20039;-47
2021/12/26 02:29:34;;;;;;;;;;;;;;;;;;5110096;28;20417;-46
2021/12/26 02:32:00;;;;;;;5.95;4.35;;;;;;;;;;5109032;28;19904;-45
2021/12/26 02:34:26;;;;;;;6.85;4.82;;;;;;;;;;5109468;28;20067;-48
2021/12/26 02:36:55;;;;;;;8.02;5.00;;;;;;;;;;5102529;28;20462;-46
2021/12/26 02:39:21;;;;;;;6.22;4.35;;;;;;;;;;5089494;28;20028;-46
2021/12/26 02:41:47;;;;;;;8.02;4.85;;;;;;;;;;5089761;28;20064;-46
2021/12/26 02:44:13;;;;;;;7.72;4.88;;;;;;;;;;5088645;28;20392;-46
2021/12/26 02:46:40;;;;;;;5.93;4.63;;;;;;;;;;5087204;28;20641;-47
2021/12/26 02:49:07;;;;;;;8.75;4.90;;;;;;;;;;5106813;28;20031;-46
2021/12/26 02:51:33;;;;;;;10.82;5.20;;;;;;;;;;5090490;28;20428;-46
2021/12/26 02:53:59;;;;;;;7.43;5.10;;;;;;;;;;5109232;28;20016;-46
2021/12/26 02:56:25;;;;;;;9.77;6.10;;;;;;;;;;5103657;28;20423;-46
2021/12/26 02:58:51;;;;;;;9.10;5.57;;;;;;;;;;5088241;28;20043;-46
2021/12/26 03:01:20;;;;;;;9.25;5.50;;;;;;;;;;5088571;28;20153;-46
2021/12/26 03:03:46;;;;;;;8.38;4.93;;;;;;;;;;5088583;28;20031;-45
2021/12/26 03:06:22;;;;;;;8.50;5.18;;;;;;;;;;5088633;28;20115;-47
2021/12/26 03:08:51;;;;;;;7.15;4.20;;;;;;;;;;5087980;28;20024;-46
2021/12/26 03:11:17;;;;;;;6.75;4.57;;;;;;;;;;5088815;28;20024;-45
2021/12/26 03:13:44;;;;;;;6.18;4.47;;;;;;;;;;5088488;28;20062;-46
2021/12/26 03:16:10;;;;;;;5.05;4.00;;;;;;;;;;5087146;28;20024;-46
2021/12/26 03:18:36;;;;;;;6.88;4.47;;;;;;;;;;5100444;28;20521;-46
2021/12/26 03:21:05;;;;;;;5.43;3.47;;;;;;;;;;5108607;28;20040;-46
2021/12/26 03:23:31;;;;;;;5.40;3.88;;;;;;;;;;5106533;28;20476;-46
2021/12/26 03:25:58;;;;;;;5.20;3.90;;;;;;;;;;5108564;28;20399;-47
2021/12/26 03:28:25;;;;;;;6.57;4.40;;;;;;;;;;5088800;28;20032;-46
2021/12/26 03:30:52;;;;;;;5.88;4.00;;;;;;;;;;5067753;28;20100;-47
2021/12/26 03:33:19;;;;;;;7.57;4.25;;;;;;;;;;5068232;28;20418;-46
2021/12/26 03:35:45;;;;;;;6.25;4.32;;;;;;;;;;5067651;28;20062;-45
2021/12/26 03:38:13;;;;;;;5.32;4.05;;;;;;;;;;5083745;28;20028;-45
2021/12/26 03:40:39;;;;;;;6.35;4.00;;;;;;;;;;5086016;28;20070;-46
2021/12/26 03:43:06;;;;;;;5.97;3.75;;;;;;;;;;5087687;28;20082;-46
2021/12/26 03:45:32;;;;;;;6.55;4.43;;;;;;;;;;5087872;28;20032;-46
2021/12/26 03:47:58;;;;;;;5.05;3.80;;;;;;;;;;5101043;28;20031;-47
2021/12/26 03:50:27;;;;;;;4.78;3.60;;;;;;;;;;5107790;28;20440;-47
2021/12/26 03:52:56;;;;;;;5.95;3.70;;;;;;;;;;5107946;28;20102;-46
2021/12/26 03:55:23;;;;;;;5.82;3.92;;;;;;;;;;5107639;28;20031;-47
2021/12/26 03:57:49;;;;;;;5.07;3.95;;;;;;;;;;5106707;28;20020;-46
2021/12/26 04:00:16;;;;;;;5.13;3.90;;;;;;;;;;5107743;28;20031;-46
2021/12/26 04:02:43;;;;;;;6.63;4.45;;;;;;;;;;5107048;28;20722;-46
2021/12/26 04:05:10;;;;;;;6.18;4.07;;;;;;;;;;5101087;28;20027;-47
2021/12/26 04:07:37;;;;;;;7.28;4.25;;;;;;;;;;5106071;28;20615;-45
2021/12/26 04:10:04;;;;;;;5.90;4.20;;;;;;;;;;5107620;28;20042;-46
2021/12/26 04:12:36;;;;;;;5.70;3.83;;;;;;;;;;5107415;28;20016;-46
2021/12/26 04:15:04;;;;;;;5.55;3.92;;;;;;;;;;5107096;28;20031;-45
2021/12/26 04:17:30;;;;;;;5.40;3.67;;;;;;;;;;5084862;28;20021;-46
2021/12/26 04:19:56;;;;;;;4.47;3.42;;;;;;;;;;5086835;28;20491;-46
2021/12/26 04:22:22;;;;;;;5.32;3.70;;;;;;;;;;5086851;28;20189;-46
2021/12/26 04:24:48;;;;;;;6.85;3.60;;;;;;;;;;5087641;28;20471;-46
2021/12/26 04:27:14;;;;;;;6.13;3.90;;;;;;;;;;5086063;28;20414;-46
2021/12/26 04:29:40;;;;;;;5.63;3.70;;;;;;;;;;5087006;28;20020;-46
2021/12/26 04:32:07;;;;;;;5.47;3.83;;;;;;;;;;5068060;28;20151;-46
2021/12/26 04:34:33;;;;;;;4.85;3.75;;;;;;;;;;5086801;28;20028;-47
2021/12/26 04:36:59;;;;;;;5.25;3.88;;;;;;;;;;5085061;28;20016;-45
2021/12/26 04:39:25;;;;;;;5.97;3.60;;;;;;;;;;5086606;28;20495;-46
2021/12/26 04:41:51;;;;;;;5.13;3.42;;;;;;;;;;5086371;28;20511;-45
2021/12/26 04:44:17;;;;;;;4.70;3.35;;;;;;;;;;5087174;28;20028;-47
2021/12/26 04:46:43;;;;;;;4.78;3.20;;;;;;;;;;5084646;28;20725;-46
2021/12/26 04:49:10;;;;;;;4.07;2.92;;;;;;;;;;5104970;28;20019;-46
2021/12/26 04:51:36;;;;;;;5.45;3.90;;;;;;;;;;5104953;28;20048;-45
2021/12/26 04:54:02;;;;;;;5.43;3.92;;;;;;;;;;5107008;28;20504;-46
2021/12/26 04:56:28;;;;;;;5.30;3.67;;;;;;;;;;5105064;28;20038;-47
2021/12/26 04:58:54;;;;;;;7.35;4.35;;;;;;;;;;5106725;28;20505;-46
2021/12/26 05:01:20;;;;;;;10.20;6.10;;;;;;;;;;5107266;28;20028;-46
2021/12/26 05:03:47;;;;;;;13.05;7.10;;;;;;;;;;5106718;28;20027;-46
2021/12/26 05:06:13;;;;;;;11.07;6.43;;;;;;;;;;5106496;28;20050;-46
2021/12/26 05:08:39;;;;;;;13.15;6.97;;;;;;;;;;5084107;28;20036;-45
2021/12/26 05:11:05;;;;;;;13.27;7.53;;;;;;;;;;5104106;28;20023;-45
2021/12/26 05:13:31;;;;;;;10.20;6.13;;;;;;;;;;5106412;28;20065;-46
2021/12/26 05:15:57;;;;;;;9.73;5.68;;;;;;;;;;5102293;28;20024;-46
2021/12/26 05:18:23;;;;;;;8.50;4.78;;;;;;;;;;5086114;28;20405;-46
2021/12/26 05:20:49;;;;;;;8.95;5.85;;;;;;;;;;5100047;28;20039;-47
2021/12/26 05:23:15;;;;;;;9.30;5.80;;;;;;;;;;5106394;28;20028;-46
2021/12/26 05:25:41;;;;;;;8.75;5.10;;;;;;;;;;5109690;28;20016;-46
2021/12/26 05:28:08;;;;;;;6.95;4.80;;;;;;;;;;5108896;28;20453;-48
2021/12/26 05:30:34;;;;;;;6.88;4.93;;;;;;;;;;5110665;28;20020;-48
2021/12/26 05:33:00;;;;;;;7.90;5.30;;;;;;;;;;5110736;28;20026;-45
2021/12/26 05:35:27;;;;;;;8.35;5.05;;;;;;;;;;5110638;28;20486;-46
2021/12/26 05:37:53;;;;;;;6.80;4.72;;;;;;;;;;5095332;28;20028;-48
2021/12/26 05:40:19;;;;;;;6.63;4.53;;;;;;;;;;5090418;28;20598;-46
2021/12/26 05:42:45;;;;;;;7.53;4.20;;;;;;;;;;5090192;28;20403;-45
2021/12/26 05:45:12;;;;;;;6.60;4.18;;;;;;;;;;5103480;28;20024;-45
2021/12/26 05:47:38;;;;;;;5.57;3.90;;;;;;;;;;5110804;28;20398;-47
2021/12/26 05:50:06;;;;;;;6.03;4.40;;;;;;;;;;5110246;28;20020;-46
2021/12/26 05:52:32;;;;;;;6.25;4.43;;;;;;;;;;5110517;28;20024;-46
2021/12/26 05:54:58;;;;;;;6.72;4.30;;;;;;;;;;5107547;28;20130;-47
2021/12/26 05:57:24;;;;;;;6.07;3.90;;;;;;;;;;5109989;28;20019;-46
2021/12/26 05:59:50;;;;;;;5.30;3.88;;;;;;;;;;5110880;28;20023;-46
2021/12/26 06:02:17;;;;;;;7.05;4.70;;;;;;;;;;5109805;28;20085;-46
2021/12/26 06:04:43;;;;;;;5.97;3.95;;;;;;;;;;5108551;28;20028;-46
2021/12/26 06:07:09;;;;;;;4.25;3.13;;;;;;;;;;5109907;28;20540;-45
2021/12/26 06:09:35;;;;;;;5.72;3.78;;;;;;;;;;5110256;28;20031;-47
2021/12/26 06:12:01;;;;;;;5.00;3.70;;;;;;;;;;5090732;28;20575;-47
2021/12/26 06:14:27;;;;;;;5.25;3.90;;;;;;;;;;5087884;28;20792;-46
2021/12/26 06:16:54;;;;;;;5.63;3.88;;;;;;;;;;5096113;28;20540;-46
2021/12/26 06:19:20;;;;;;;4.75;3.47;;;;;;;;;;5109330;28;20028;-46
2021/12/26 06:21:46;;;;;;;4.53;3.38;;;;;;;;;;5088951;28;20509;-46
2021/12/26 06:24:12;;;;;;;4.95;3.40;;;;;;;;;;5087954;28;20016;-46
2021/12/26 06:26:38;;;;;;;4.40;3.40;;;;;;;;;;5105262;28;20548;-46
2021/12/26 06:29:04;;;;;;;5.47;3.63;;;;;;;;;;5109548;28;20051;-46
2021/12/26 06:31:30;;;;;;;5.55;3.50;;;;;;;;;;5108878;28;20081;-46
2021/12/26 06:33:57;;;;;;;4.50;3.25;;;;;;;;;;5109605;28;20409;-47
2021/12/26 06:36:23;;;;;;;5.07;3.42;;;;;;;;;;5107462;28;20031;-47
2021/12/26 06:38:49;;;;;;;4.40;3.40;;;;;;;;;;5088265;28;20031;-47
2021/12/26 06:41:15;;;;;;;5.47;3.83;;;;;;;;;;5088615;28;20067;-46
2021/12/26 06:43:42;;;;;;;5.50;3.50;;;;;;;;;;5088952;28;20055;-46
2021/12/26 06:46:09;;;;;;;4.43;3.40;;;;;;;;;;5100796;28;20035;-47
2021/12/26 06:48:35;;;;;;;4.40;2.97;;;;;;;;;;5105967;28;20070;-46
2021/12/26 06:51:02;;;;;;;5.50;3.25;;;;;;;;;;5097084;28;20047;-46
2021/12/26 06:53:28;;;;;;;4.35;3.25;;;;;;;;;;5089594;28;20023;-47
2021/12/26 06:55:54;;;;;;;4.13;3.22;;;;;;;;;;5092467;28;20077;-47
2021/12/26 06:58:21;;;;;;;5.30;4.13;;;;;;;;;;5087042;28;20038;-47
2021/12/26 07:00:47;;;;;;;7.25;4.30;;;;;;;;;;5100015;28;20028;-46
2021/12/26 07:03:13;;;;;;;5.70;4.00;;;;;;;;;;5095474;28;20062;-46
2021/12/26 07:05:39;;;;;;;6.63;4.22;;;;;;;;;;5108934;28;20157;-46
2021/12/26 07:08:05;;;;;;;5.15;3.97;;;;;;;;;;5106316;28;20054;-46
2021/12/26 07:10:31;;;;;;;5.13;4.13;;;;;;;;;;5089373;28;20057;-46
2021/12/26 07:12:57;;;;;;;6.20;4.50;;;;;;;;;;5088932;28;20032;-47
2021/12/26 07:15:24;;;;;;;6.88;4.57;;;;;;;;;;5088649;28;20464;-46
2021/12/26 07:17:50;;;;;;;6.90;4.72;;;;;;;;;;5088606;28;20031;-47
2021/12/26 07:20:16;;;;;;;4.90;3.80;;;;;;;;;;5088130;28;20407;-46
2021/12/26 07:22:44;;;;;;;8.13;4.88;;;;;;;;;;5086492;28;20036;-46
2021/12/26 07:25:10;;;;;;;7.05;4.75;;;;;;;;;;5088085;28;20032;-46
2021/12/26 07:27:36;;;;;;;6.57;4.80;;;;;;;;;;5097996;28;20035;-46
2021/12/26 07:30:03;;;;;;;5.00;4.00;;;;;;;;;;5107701;28;20027;-46
2021/12/26 07:32:30;;;;;;;5.65;4.15;;;;;;;;;;5088287;28;20081;-46
2021/12/26 07:34:57;;;;;;;6.53;4.43;;;;;;;;;;5088397;28;20055;-47
2021/12/26 07:37:23;;;;;;;5.95;4.50;;;;;;;;;;5100950;28;20031;-46
2021/12/26 07:39:49;;;;;;;5.65;3.85;;;;;;;;;;5108220;28;20035;-47
2021/12/26 07:42:15;;;;;;;6.95;4.50;;;;;;;;;;5071698;28;20408;-48
2021/12/26 07:44:42;;;;;;;5.68;3.88;;;;;;;;;;5087630;28;20041;-47
2021/12/26 07:47:08;;;;;;;5.65;3.67;;;;;;;;;;5085346;28;20032;-46
2021/12/26 07:49:34;;;;;;;6.13;3.88;;;;;;;;;;5086717;28;20028;-46
2021/12/26 07:52:02;;;;;;;5.03;3.53;;;;;;;;;;5083618;28;20865;-46
2021/12/26 07:54:28;;;;;;;5.38;3.60;;;;;;;;;;5074125;28;20024;-46
2021/12/26 07:56:55;;;;;;;5.97;4.10;;;;;;;;;;5079385;28;20099;-45
2021/12/26 07:59:21;;;;;;;6.22;4.00;;;;;;;;;;5088146;28;20028;-46
2021/12/26 08:01:47;;;;;;;5.97;4.20;;;;;;;;;;5084432;28;20066;-47
2021/12/26 08:04:14;;;;;;;6.03;4.28;;;;;;;;;;5095151;28;20036;-47
2021/12/26 08:06:41;;;;;;;7.57;5.28;;;;;;;;;;5108449;28;20028;-46
2021/12/26 08:09:07;;;;;;;9.02;5.88;;;;;;;;;;5087604;28;20032;-47
2021/12/26 08:11:34;;;;;;;8.63;5.50;;;;;;;;;;5088894;28;20384;-46
2021/12/26 08:14:00;;;;;;;8.00;5.18;;;;;;;;;;5089502;28;20422;-46
2021/12/26 08:16:26;;;;;;;7.28;5.00;;;;;;;;;;5088383;28;20024;-48
2021/12/26 08:18:53;;;;;;;8.32;5.15;;;;;;;;;;5086425;28;20063;-47
2021/12/26 08:21:20;;;;;;;8.27;5.75;;;;;;;;;;5087800;28;20028;-46
2021/12/26 08:23:46;;;;;;;8.30;5.32;;;;;;;;;;5087896;28;20031;-50
2021/12/26 08:26:13;;;;;;;7.82;5.57;;;;;;;;;;5087428;28;20107;-46
2021/12/26 08:28:39;;;;;;;8.48;5.03;;;;;;;;;;5092658;28;20030;-50
2021/12/26 08:31:05;;;;;;;7.47;4.53;;;;;;;;;;5096660;28;20120;-45
2021/12/26 08:33:31;;;;;;;7.05;5.07;;;;;;;;;;5097621;28;20032;-46
2021/12/26 08:35:58;;;;;;;6.47;4.40;;;;;;;;;;5089693;28;20486;-48
2021/12/26 08:38:25;;;;;;;7.07;4.72;;;;;;;;;;5103374;28;20518;-48
2021/12/26 08:40:52;;;;;;;5.25;3.97;;;;;;;;;;5087175;28;20073;-50
2021/12/26 08:43:18;;;;;;;5.85;3.80;;;;;;;;;;5087208;28;20139;-47
2021/12/26 08:45:45;;;;;;;6.07;4.10;;;;;;;;;;5091671;28;20024;-47
2021/12/26 08:48:11;;;;;;;5.35;3.90;;;;;;;;;;5103045;28;20077;-47
2021/12/26 08:50:37;;;;;;;6.43;4.40;;;;;;;;;;5087947;28;20031;-46
2021/12/26 08:53:03;;;;;;;6.28;4.63;;;;;;;;;;5068885;28;20035;-46
2021/12/26 08:55:29;;;;;;;7.97;4.78;;;;;;;;;;5086827;28;20026;-46
2021/12/26 08:57:55;;;;;;;7.55;5.10;;;;;;;;;;5086358;28;20078;-47
2021/12/26 09:00:23;;;;;;;7.30;5.10;;;;;;;;;;5105926;28;20096;-46
2021/12/26 09:02:50;;;;;;;8.48;5.22;;;;;;;;;;5089550;28;20024;-46
2021/12/26 09:05:16;;;;;;;7.85;5.10;;;;;;;;;;5095868;28;20568;-46
2021/12/26 09:07:43;;;;;;;8.88;5.85;;;;;;;;;;5107489;28;20047;-46
2021/12/26 09:10:11;;;;;;;8.68;5.65;;;;;;;;;;5107183;28;20043;-45
2021/12/26 09:12:38;;;;;;;9.25;5.38;;;;;;;;;;5092503;28;20028;-46
2021/12/26 09:15:06;;;;;;;8.65;5.45;;;;;;;;;;5071891;28;20024;-46
2021/12/26 09:17:32;;;;;;;7.38;4.95;;;;;;;;;;5090324;28;20035;-45
2021/12/26 09:19:58;;;;;;;7.72;5.28;;;;;;;;;;5088778;28;20028;-45
2021/12/26 09:22:24;;;;;;;7.57;4.80;;;;;;;;;;5094013;28;20440;-46
2021/12/26 09:24:51;;;;;;;8.30;5.38;;;;;;;;;;5084616;28;20067;-46
2021/12/26 09:27:18;;;;;;;8.00;4.82;;;;;;;;;;5105133;28;20058;-46
2021/12/26 09:29:44;;;;;;;6.03;3.83;;;;;;;;;;5101407;28;20024;-50
2021/12/26 09:32:10;;;;;;;6.28;4.47;;;;;;;;;;5081284;28;20020;-47
2021/12/26 09:34:37;;;;;;;5.68;4.07;;;;;;;;;;5066653;28;20034;-47
2021/12/26 09:37:04;;;;;;;4.57;3.60;;;;;;;;;;5066350;28;20028;-46
2021/12/26 09:39:30;;;;;;;4.95;3.72;;;;;;;;;;5066204;28;20626;-49
2021/12/26 09:41:56;;;;;;;5.40;3.53;;;;;;;;;;5077823;28;20020;-47
2021/12/26 09:44:22;;;;;;;7.13;4.15;;;;;;;;;;5090219;28;20040;-48
2021/12/26 09:46:49;;;;;;;4.63;3.50;;;;;;;;;;5086758;28;20031;-46
2021/12/26 09:49:15;;;;;;;5.93;3.53;;;;;;;;;;5086417;28;20032;-49
2021/12/26 09:51:41;;;;;;;4.88;3.70;;;;;;;;;;5093681;28;20496;-46
2021/12/26 09:54:08;;;;;;;9.13;6.18;;;;;;;;;;5107222;28;20076;-46
2021/12/26 09:56:34;;;;;;;11.32;7.35;;;;;;;;;;5087693;28;20154;-46
2021/12/26 09:59:04;;;;;;;10.95;6.72;;;;;;;;;;5086367;28;20043;-45
2021/12/26 10:01:34;;;;;;;11.57;7.00;;;;;;;;;;5075403;28;20028;-47
2021/12/26 10:04:01;;;;;;;10.25;5.95;;;;;;;;;;5072313;28;20071;-48
2021/12/26 10:06:31;;;;;;;9.82;6.38;;;;;;;;;;5067256;28;20106;-46
2021/12/26 10:09:07;;;;;;;10.20;6.05;;;;;;;;;;5082746;28;20403;-48
2021/12/26 10:11:35;;;;;;;9.43;5.50;;;;;;;;;;5087663;28;20027;-47
2021/12/26 10:14:06;;;;;;;7.55;5.45;;;;;;;;;;5089157;28;20419;-46
2021/12/26 10:16:36;;;;;;;8.57;5.32;;;;;;;;;;5090389;28;20032;-45
2021/12/26 10:19:03;;;;;;;7.35;4.13;;;;;;;;;;5094514;28;20043;-46
2021/12/26 10:21:34;;;;;;;5.80;4.03;;;;;;;;;;5089410;28;20024;-46
2021/12/26 10:24:02;;;;;;;6.65;4.10;;;;;;;;;;5089969;28;20024;-46
2021/12/26 10:26:30;;;;;;;5.03;3.22;;;;;;;;;;5089918;28;20659;-46
2021/12/26 10:29:08;;;;;;;5.28;3.28;;;;;;;;;;5089707;28;20028;-47
2021/12/26 10:31:35;;;;;;;4.97;2.70;;;;;;;;;;5089391;28;20067;-46
2021/12/26 10:34:01;;;;;;;5.72;3.35;;;;;;;;;;5089890;28;20028;-45
2021/12/26 10:36:27;;;;;;;6.07;3.67;;;;;;;;;;5089518;28;20028;-46
2021/12/26 10:39:08;;;;;;;5.57;3.47;;;;;;;;;;5089791;28;20483;-46
2021/12/26 10:41:34;;;;;;;5.70;3.72;;;;;;;;;;5089597;28;20031;-46
2021/12/26 10:44:00;;;;;;;5.18;3.35;;;;;;;;;;5089448;28;20063;-46
2021/12/26 10:46:26;;;;;;;5.45;3.45;;;;;;;;;;5089324;28;20531;-46
2021/12/26 10:48:53;;;;;;;4.47;3.17;;;;;;;;;;5089624;28;20034;-47
2021/12/26 10:51:35;;;;;;;4.22;2.97;;;;;;;;;;5089186;28;20165;-46
2021/12/26 10:54:18;;;;;;;6.30;3.08;;;;;;;;;;5071152;28;20406;-46
2021/12/26 10:57:02;;;;;;;4.60;3.13;;;;;;;;;;5089384;28;20020;-46
2021/12/26 10:59:28;;;;;;;4.25;3.03;;;;;;;;;;5089025;28;20554;-46
2021/12/26 11:01:56;;;;;;;4.38;2.85;;;;;;;;;;5089475;28;20035;-45
2021/12/26 11:04:23;;;;;;;4.38;2.92;;;;;;;;;;5084993;28;20434;-48
2021/12/26 11:06:59;;;;;;;3.80;2.85;;;;;;;;;;5084797;28;20024;-49
2021/12/26 11:09:25;;;;;;;4.15;2.60;;;;;;;;;;5086794;28;20118;-47
2021/12/26 11:11:58;;;;;;;3.50;2.67;;;;;;;;;;5088999;28;20444;-46
2021/12/26 11:14:24;;;;;;;3.28;2.47;;;;;;;;;;5082456;28;20069;-49
2021/12/26 11:16:50;;;;;;;3.30;2.53;;;;;;;;;;5085434;28;20028;-51
2021/12/26 11:19:16;;;;;;;3.95;2.78;;;;;;;;;;5088824;28;20076;-50
2021/12/26 11:21:43;;;;;;;3.20;2.58;;;;;;;;;;5088277;28;20055;-49
2021/12/26 11:24:09;;;;;;;2.78;2.30;;;;;;;;;;5088664;28;20024;-48
2021/12/26 11:26:35;;;;;;;3.10;2.42;;;;;;;;;;5089071;28;20123;-48
2021/12/26 11:29:01;;;;;;;3.92;2.60;;;;;;;;;;5088419;28;20089;-45
2021/12/26 11:31:30;;;;;;;3.03;2.50;;;;;;;;;;5087858;28;20028;-47
2021/12/26 11:34:00;;;;;;;3.40;2.53;;;;;;;;;;5088592;28;20024;-44
2021/12/26 11:36:29;;;;;;;3.92;2.30;;;;;;;;;;5088684;28;20624;-44
2021/12/26 11:38:57;;;;;;;3.65;2.50;;;;;;;;;;5088651;28;20031;-44
2021/12/26 11:41:39;;;;;;;3.47;2.78;;;;;;;;;;5087037;28;20047;-45
2021/12/26 11:44:08;;;;;;;3.53;2.75;;;;;;;;;;5086710;28;20028;-44
2021/12/26 11:46:34;;;;;;;3.90;2.70;;;;;;;;;;5088057;28;20035;-45
2021/12/26 11:49:09;;;;;;;4.07;3.08;;;;;;;;;;5095404;28;20054;-44
2021/12/26 11:51:38;;;;;;;3.45;2.50;;;;;;;;;;5088605;28;20031;-45
2021/12/26 11:54:34;;;;;;;3.85;2.70;;;;;;;;;;5088348;28;20031;-44
2021/12/26 11:57:10;;;;;;;4.30;2.60;;;;;;;;;;5069993;28;20400;-46
2021/12/26 11:59:47;;;;;;;3.80;2.78;;;;;;;;;;5085777;28;20020;-44
2021/12/26 12:02:33;;;;;;;3.22;2.50;;;;;;;;;;5102350;28;20036;-45
2021/12/26 12:05:18;;;;;;;3.83;2.75;;;;;;;;;;5082664;28;20032;-47
2021/12/26 12:07:44;;;;;;;3.47;2.60;;;;;;;;;;5053082;28;20028;-46
2021/12/26 12:10:29;;;;;;;3.58;2.80;;;;;;;;;;5091634;28;20030;-49
2021/12/26 12:12:55;;;;;;;2.95;2.33;;;;;;;;;;5083813;28;20051;-46
2021/12/26 12:15:41;;;;;;;2.80;2.17;;;;;;;;;;5085246;28;20024;-46
2021/12/26 12:18:09;;;;;;;2.78;2.25;;;;;;;;;;5082619;28;20055;-46
2021/12/26 12:20:35;;;;;;;3.78;2.83;;;;;;;;;;5085732;28;20507;-46
2021/12/26 12:23:08;;;;;;;3.22;2.15;;;;;;;;;;5074327;28;20020;-46
2021/12/26 12:25:34;;;;;;;3.20;2.55;;;;;;;;;;5086207;28;20060;-45
2021/12/26 12:28:20;;;;;;;3.25;2.80;;;;;;;;;;5082718;28;20021;-49
2021/12/26 12:30:56;;;;;;;3.15;2.78;;;;;;;;;;5083898;28;20054;-45
2021/12/26 12:33:28;;;;;;;4.15;3.25;;;;;;;;;;5084579;28;20043;-47
2021/12/26 12:36:03;;;;;;;3.70;2.72;;;;;;;;;;5071565;28;20414;-45
2021/12/26 12:38:31;;;;;;;4.93;2.90;;;;;;;;;;5085771;28;20025;-45
2021/12/26 12:40:57;;;;;;;3.30;2.55;;;;;;;;;;5082455;28;20523;-44
2021/12/26 12:43:25;;;;;;;3.53;2.80;;;;;;;;;;5084265;28;20031;-45
2021/12/26 12:48:28;;;;;;;4.40;3.00;;;;;;;;;;5081356;28;20403;-44
2021/12/26 12:50:55;;;;;;;4.82;3.33;;;;;;;;;;5084831;28;20028;-43
2021/12/26 12:53:40;;;;;;;3.85;3.03;;;;;;;;;;5084298;28;20024;-45
2021/12/26 12:56:07;;;;;;;3.35;2.83;;;;;;;;;;5084965;28;20107;-45
2021/12/26 12:58:36;;;;;;;4.22;3.22;;;;;;;;;;5084446;28;20482;-48
2021/12/26 13:01:03;;;;;;;4.82;3.15;;;;;;;;;;5084751;28;20392;-48
2021/12/26 13:03:31;;;;;;;4.28;2.85;;;;;;;;;;5084101;28;20028;-48
2021/12/26 13:06:05;;;;;;;4.32;3.05;;;;;;;;;;5083468;28;20448;-46
2021/12/26 13:08:33;;;;;;;4.03;3.05;;;;;;;;;;5082519;28;20468;-46
2021/12/26 13:11:01;;;;;;;4.47;3.22;;;;;;;;;;5084073;28;20068;-48
2021/12/26 13:13:27;;;;;;;3.75;2.97;;;;;;;;;;5083356;28;20038;-48
2021/12/26 13:15:53;;;;;;;3.67;2.75;;;;;;;;;;5084857;28;20024;-46
2021/12/26 13:18:20;;;;;;;4.15;3.03;;;;;;;;;;5082927;28;20085;-48
2021/12/26 13:20:50;;;;;;;4.78;2.95;;;;;;;;;;5084595;28;20046;-46
2021/12/26 13:23:17;;;;;;;4.22;3.00;;;;;;;;;;5066469;28;20058;-46
2021/12/26 13:25:51;;;;;;;4.78;3.00;;;;;;;;;;5085656;28;20024;-47
2021/12/26 13:28:17;;;;;;;4.05;2.97;;;;;;;;;;5095808;28;20550;-46
2021/12/26 13:30:44;;;;;;;4.53;3.33;;;;;;;;;;5085756;28;20028;-47
2021/12/26 13:33:26;;;;;;;5.43;3.67;;;;;;;;;;5084593;28;20503;-46
2021/12/26 13:35:52;;;;;;;3.72;3.00;;;;;;;;;;5084313;28;20085;-46
2021/12/26 13:38:19;;;;;;;4.65;3.33;;;;;;;;;;5085608;28;20051;-48
2021/12/26 13:40:46;;;;;;;4.60;3.38;;;;;;;;;;5084191;28;20074;-44
2021/12/26 13:43:13;;;;;;;4.65;3.33;;;;;;;;;;5082856;28;20503;-47
2021/12/26 13:45:43;;;;;;;4.28;3.22;;;;;;;;;;5086116;28;20055;-45
2021/12/26 13:48:10;;;;;;;4.97;3.15;;;;;;;;;;5069094;28;20032;-48
2021/12/26 13:50:36;;;;;;;3.83;2.88;;;;;;;;;;5088834;28;20031;-43
2021/12/26 13:53:06;;;;;;;4.00;3.20;;;;;;;;;;5088724;28;20060;-47
2021/12/26 13:55:34;;;;;;;4.88;3.33;;;;;;;;;;5088655;28;20024;-45
2021/12/26 13:58:01;;;;;;;5.50;3.42;;;;;;;;;;5090188;28;20031;-45
2021/12/26 14:00:27;;;;;;;5.00;3.83;;;;;;;;;;5093691;28;20546;-47
2021/12/26 14:02:53;;;;;;;6.53;3.70;;;;;;;;;;5069180;28;20453;-45
2021/12/26 14:05:21;;;;;;;6.60;4.47;;;;;;;;;;5092877;28;20039;-49
2021/12/26 14:08:01;;;;;;;5.18;4.00;;;;;;;;;;5081716;28;20406;-46
2021/12/26 14:10:27;;;;;;;5.03;3.63;;;;;;;;;;5086808;28;20065;-48
2021/12/26 14:12:57;;;;;;;5.30;3.30;;;;;;;;;;5087976;28;20036;-46
2021/12/26 14:15:31;;;;;;;5.22;3.63;;;;;;;;;;5087939;28;20021;-45
2021/12/26 14:18:00;;;;;;;5.07;3.22;;;;;;;;;;5087669;28;20028;-47
2021/12/26 14:20:47;;;;;;;4.80;3.60;;;;;;;;;;5068998;28;20028;-48
2021/12/26 14:23:16;;;;;;;5.25;3.38;;;;;;;;;;5041006;28;20040;-45
2021/12/26 14:25:42;;;;;;;6.85;3.90;;;;;;;;;;5088275;28;20103;-44
2021/12/26 14:28:12;;;;;;;6.53;4.50;;;;;;;;;;5090425;28;20561;-47
2021/12/26 14:30:38;;;;;;;7.13;4.50;;;;;;;;;;5089190;28;20038;-48
2021/12/26 14:33:04;;;;;;;6.57;4.65;;;;;;;;;;5069448;28;20123;-47
2021/12/26 14:35:31;;;;;;;6.43;4.32;;;;;;;;;;5087731;28;20384;-46
2021/12/26 14:38:12;;;;;;;6.80;4.22;;;;;;;;;;5088521;28;20295;-44
2021/12/26 14:40:49;;;;;;;6.65;4.20;;;;;;;;;;5107748;28;20056;-46
2021/12/26 14:43:15;;;;;;;5.25;3.58;;;;;;;;;;5091650;28;20024;-47
2021/12/26 14:45:53;;;;;;;5.38;4.22;;;;;;;;;;5088244;28;20082;-44
2021/12/26 14:48:29;;;;;;;5.63;4.00;;;;;;;;;;5098730;28;20032;-45
2021/12/26 14:50:56;;;;;;;5.55;4.05;;;;;;;;;;5087090;28;20073;-46
2021/12/26 14:53:22;;;;;;;5.00;3.65;;;;;;;;;;5087205;28;20032;-47
2021/12/26 14:56:05;;;;;;;5.07;3.40;;;;;;;;;;5086668;28;20495;-48
2021/12/26 14:58:45;;;;;;;4.68;3.65;;;;;;;;;;5089689;28;20027;-47